createdAt,value
2019-03-12T00:01:24.354Z,99415.80
2019-03-12T00:03:52.362Z,99423.53
2019-03-12T00:06:19.686Z,99429.36
2019-03-12T00:08:46.749Z,99425.36
2019-03-12T00:11:14.181Z,99426.94
2019-03-12T00:13:41.553Z,99420.54
2019-03-12T00:16:08.831Z,99424.52
2019-03-12T00:18:35.899Z,99428.03
2019-03-12T00:21:03.396Z,99429.61
2019-03-12T00:23:31.252Z,99440.31
2019-03-12T00:28:38.734Z,99437.62
2019-03-12T00:31:05.824Z,99445.03
2019-03-12T00:33:33.340Z,99449.25
2019-03-12T00:36:01.353Z,99461.26
2019-03-12T00:38:29.006Z,99468.15
2019-03-12T00:40:57.076Z,99461.53
2019-03-12T00:43:24.835Z,99457.66
2019-03-12T00:45:52.662Z,99472.16
2019-03-12T00:48:19.762Z,99484.16
2019-03-12T00:50:47.176Z,99484.16
2019-03-12T00:53:14.287Z,99486.83
2019-03-12T00:55:41.616Z,99485.79
2019-03-12T00:58:08.984Z,99485.77
2019-03-12T01:00:36.287Z,99483.09
2019-03-12T01:03:03.583Z,99481.00
2019-03-12T01:05:31.060Z,99484.41
2019-03-12T01:07:58.197Z,99478.73
2019-03-12T01:10:25.586Z,99477.64
2019-03-12T01:12:52.925Z,99481.63
2019-03-12T01:15:20.869Z,99483.80
2019-03-12T01:17:48.472Z,99483.72
2019-03-12T01:20:15.700Z,99476.50
2019-03-12T01:22:43.085Z,99478.62
2019-03-12T01:25:10.496Z,99472.53
2019-03-12T01:27:37.963Z,99479.17
2019-03-12T01:30:07.122Z,99482.63
2019-03-12T01:32:34.515Z,99482.02
2019-03-12T01:35:01.654Z,99492.20
2019-03-12T01:37:28.656Z,99497.00
2019-03-12T01:39:56.039Z,99502.03
2019-03-12T01:42:23.962Z,99519.43
2019-03-12T01:44:51.234Z,99515.45
2019-03-12T01:47:18.554Z,99513.27
2019-03-12T01:49:45.620Z,99509.45
2019-03-12T01:52:13.196Z,99509.73
2019-03-12T01:54:40.584Z,99515.67
2019-03-12T01:57:07.919Z,99513.79
2019-03-12T01:59:36.009Z,99514.58
2019-03-12T02:02:03.140Z,99519.91
2019-03-12T02:04:30.749Z,99513.19
2019-03-12T02:06:58.061Z,99513.19
2019-03-12T02:09:25.381Z,99509.70
2019-03-12T02:11:52.439Z,99505.66
2019-03-12T02:14:27.605Z,99503.75
2019-03-12T02:16:54.941Z,99501.91
2019-03-12T02:19:22.564Z,99504.52
2019-03-12T02:21:49.924Z,99502.39
2019-03-12T02:24:17.337Z,99498.36
2019-03-12T02:26:44.380Z,99493.58
2019-03-12T02:29:12.790Z,99500.23
2019-03-12T02:31:39.887Z,99504.73
2019-03-12T02:34:07.224Z,99500.23
2019-03-12T02:36:34.280Z,99498.36
2019-03-12T02:39:01.353Z,99503.70
2019-03-12T02:41:28.502Z,99504.73
2019-03-12T02:43:55.891Z,99492.72
2019-03-12T02:46:23.591Z,99503.97
2019-03-12T02:48:51.318Z,99495.15
2019-03-12T02:51:18.687Z,99497.78
2019-03-12T02:53:46.054Z,99491.33
2019-03-12T02:56:13.352Z,99486.03
2019-03-12T02:58:40.408Z,99483.60
2019-03-12T03:01:07.457Z,99483.02
2019-03-12T03:03:34.577Z,99482.48
2019-03-12T03:06:18.944Z,99491.27
2019-03-12T03:08:46.347Z,99487.48
2019-03-12T03:11:13.819Z,99488.88
2019-03-12T03:13:41.233Z,99494.20
2019-03-12T03:16:08.336Z,99498.14
2019-03-12T03:18:35.789Z,99497.36
2019-03-12T03:21:03.118Z,99500.30
2019-03-12T03:23:31.095Z,99499.55
2019-03-12T03:25:58.218Z,99495.72
2019-03-12T03:28:45.129Z,99502.08
2019-03-12T03:31:12.189Z,99501.50
2019-03-12T03:33:39.887Z,99509.19
2019-03-12T03:36:07.646Z,99504.68
2019-03-12T03:38:35.194Z,99504.65
2019-03-12T03:41:02.301Z,99493.47
2019-03-12T03:43:29.372Z,99495.08
2019-03-12T03:45:56.736Z,99490.23
2019-03-12T03:48:24.089Z,99488.14
2019-03-12T03:50:51.246Z,99486.30
2019-03-12T03:53:19.104Z,99490.23
2019-03-12T03:55:46.219Z,99479.41
2019-03-12T03:58:14.204Z,99491.86
2019-03-12T04:00:41.527Z,99497.20
2019-03-12T04:03:08.838Z,99498.22
2019-03-12T04:05:36.050Z,99497.37
2019-03-12T04:08:03.148Z,99496.00
2019-03-12T04:10:30.329Z,99496.34
2019-03-12T04:12:57.513Z,99491.19
2019-03-12T04:15:24.626Z,99490.16
2019-03-12T04:17:52.915Z,99487.73
2019-03-12T04:20:21.460Z,99488.83
2019-03-12T04:22:48.644Z,99491.19
2019-03-12T04:25:15.763Z,99481.83
2019-03-12T04:27:43.999Z,99482.89
2019-03-12T04:30:12.207Z,99488.45
2019-03-12T04:32:39.647Z,99482.55
2019-03-12T04:35:08.836Z,99483.88
2019-03-12T04:37:35.959Z,99479.61
2019-03-12T04:40:04.171Z,99470.52
2019-03-12T04:42:31.498Z,99475.61
2019-03-12T04:44:59.167Z,99465.46
2019-03-12T04:47:26.528Z,99466.77
2019-03-12T04:49:53.592Z,99460.58
2019-03-12T04:52:21.426Z,99462.70
2019-03-12T04:54:48.473Z,99454.40
2019-03-12T04:57:16.733Z,99458.60
2019-03-12T04:59:44.932Z,99464.30
2019-03-12T05:02:12.654Z,99458.98
2019-03-12T05:04:41.370Z,99455.94
2019-03-12T05:07:09.237Z,99459.91
2019-03-12T05:09:37.824Z,99459.08
2019-03-12T05:12:07.192Z,99454.81
2019-03-12T05:14:36.682Z,99460.72
2019-03-12T05:17:10.443Z,99457.52
2019-03-12T05:19:42.847Z,99456.21
2019-03-12T05:22:11.384Z,99438.73
2019-03-12T05:24:39.138Z,99438.73
2019-03-12T05:27:07.144Z,99451.70
2019-03-12T05:29:35.399Z,99451.94
2019-03-12T05:32:03.764Z,99450.34
2019-03-12T05:34:32.519Z,99445.77
2019-03-12T05:37:00.631Z,99441.22
2019-03-12T05:39:28.538Z,99437.97
2019-03-12T05:41:56.978Z,99440.05
2019-03-12T05:44:25.404Z,99439.30
2019-03-12T05:46:53.722Z,99427.34
2019-03-12T05:49:21.413Z,99425.74
2019-03-12T05:51:49.190Z,99428.64
2019-03-12T05:54:17.619Z,99427.89
2019-03-12T05:56:46.025Z,99436.44
2019-03-12T05:59:13.951Z,99425.50
2019-03-12T06:01:46.664Z,99420.41
2019-03-12T06:04:14.878Z,99429.73
2019-03-12T06:06:43.210Z,99424.66
2019-03-12T06:09:11.588Z,99424.07
2019-03-12T06:11:39.471Z,99423.05
2019-03-12T06:14:08.007Z,99417.38
2019-03-12T06:16:35.870Z,99405.73
2019-03-12T06:19:03.836Z,99412.08
2019-03-12T06:21:33.004Z,99407.54
2019-03-12T06:24:01.592Z,99408.39
2019-03-12T06:26:29.895Z,99405.73
2019-03-12T06:28:58.164Z,99411.16
2019-03-12T06:32:01.319Z,99400.88
2019-03-12T06:34:48.901Z,99409.14
2019-03-12T06:37:37.452Z,99403.67
2019-03-12T06:40:19.245Z,99403.91
2019-03-12T06:42:59.271Z,99401.77
2019-03-12T06:46:00.821Z,99400.94
2019-03-12T06:48:40.059Z,99395.09
2019-03-12T06:51:30.833Z,99395.16
2019-03-12T06:54:17.235Z,99395.44
2019-03-12T06:57:08.531Z,99392.47
2019-03-12T07:00:01.707Z,99393.53
2019-03-12T07:02:47.718Z,99387.98
2019-03-12T07:05:31.242Z,99376.60
2019-03-12T07:08:34.271Z,99379.78
2019-03-12T07:11:28.087Z,99378.20
2019-03-12T07:14:10.531Z,99372.64
2019-03-12T07:17:01.522Z,99371.66
2019-03-12T07:19:51.837Z,99370.97
2019-03-12T07:22:38.459Z,99366.48
2019-03-12T07:25:26.144Z,99364.66
2019-03-12T07:28:19.852Z,99366.56
2019-03-12T07:30:55.579Z,99359.73
2019-03-12T07:33:36.737Z,99361.42
2019-03-12T07:36:24.484Z,99356.72
2019-03-12T07:38:58.793Z,99352.25
2019-03-12T07:41:39.055Z,99352.84
2019-03-12T07:44:27.290Z,99346.03
2019-03-12T07:47:10.198Z,99342.33
2019-03-12T07:50:01.306Z,99343.98
2019-03-12T07:53:00.794Z,99334.94
2019-03-12T07:55:47.548Z,99333.11
2019-03-12T07:58:36.031Z,99321.15
2019-03-12T08:01:32.184Z,99320.13
2019-03-12T08:04:08.360Z,99314.61
2019-03-12T08:06:48.503Z,99310.94
2019-03-12T08:09:34.187Z,99302.73
2019-03-12T08:12:18.959Z,99287.61
2019-03-12T08:14:54.094Z,99283.63
2019-03-12T08:17:29.623Z,99279.45
2019-03-12T08:20:23.979Z,99276.54
2019-03-12T08:23:17.885Z,99278.20
2019-03-12T08:25:56.286Z,99269.40
2019-03-12T08:28:32.386Z,99269.40
2019-03-12T08:31:22.897Z,99267.29
2019-03-12T08:34:16.488Z,99259.33
2019-03-12T08:36:51.030Z,99243.84
2019-03-12T08:39:41.466Z,99250.78
2019-03-12T08:42:29.431Z,99242.51
2019-03-12T08:45:16.891Z,99242.56
2019-03-12T08:47:55.622Z,99230.29
2019-03-12T08:50:33.218Z,99233.02
2019-03-12T08:53:21.059Z,99231.69
2019-03-12T08:56:07.730Z,99233.02
2019-03-12T08:59:04.179Z,99226.35
2019-03-12T09:01:53.367Z,99222.89
2019-03-12T09:04:49.647Z,99206.04
2019-03-12T09:07:39.963Z,99217.61
2019-03-12T09:10:31.035Z,99212.26
2019-03-12T09:13:19.964Z,99206.40
2019-03-12T09:16:08.285Z,99212.02
2019-03-12T09:19:02.268Z,99202.95
2019-03-12T09:21:56.243Z,99197.61
2019-03-12T09:24:50.521Z,99185.59
2019-03-12T09:27:39.064Z,99192.27
2019-03-12T09:30:22.393Z,99188.26
2019-03-12T09:33:28.408Z,99182.95
2019-03-12T09:36:05.930Z,99172.78
2019-03-12T09:38:44.575Z,99175.45
2019-03-12T09:41:31.377Z,99167.44
2019-03-12T09:44:19.519Z,99158.89
2019-03-12T09:46:54.001Z,99154.87
2019-03-12T09:49:51.466Z,99151.19
2019-03-12T09:52:41.607Z,99148.52
2019-03-12T09:55:37.886Z,99135.97
2019-03-12T09:58:30.023Z,99125.53
2019-03-12T10:01:21.698Z,99119.92
2019-03-12T10:04:08.387Z,99115.65
2019-03-12T10:07:05.746Z,99106.29
2019-03-12T10:09:56.510Z,99100.67
2019-03-12T10:12:41.758Z,99091.05
2019-03-12T10:15:41.915Z,99081.98
2019-03-12T10:18:42.333Z,99080.91
2019-03-12T10:21:41.987Z,99075.55
2019-03-12T10:24:38.964Z,99065.92
2019-03-12T10:27:15.341Z,99065.11
2019-03-12T10:29:52.633Z,99056.56
2019-03-12T10:32:37.998Z,99055.23
2019-03-12T10:35:27.601Z,99058.19
2019-03-12T10:38:13.156Z,99048.56
2019-03-12T10:41:09.785Z,99038.66
2019-03-12T10:43:43.385Z,99034.09
2019-03-12T10:46:27.240Z,99025.28
2019-03-12T10:48:55.071Z,99029.02
2019-03-12T10:51:23.070Z,99020.73
2019-03-12T10:53:50.787Z,99008.95
2019-03-12T10:56:18.690Z,99017.23
2019-03-12T10:58:47.094Z,99006.54
2019-03-12T11:01:14.852Z,99005.75
2019-03-12T11:03:43.125Z,98991.30
2019-03-12T11:06:11.506Z,98992.39
2019-03-12T11:08:39.341Z,98980.09
2019-03-12T11:11:08.033Z,98981.70
2019-03-12T11:13:36.015Z,98983.29
2019-03-12T11:16:04.099Z,98969.10
2019-03-12T11:18:32.280Z,98965.10
2019-03-12T11:21:00.332Z,98963.75
2019-03-12T11:23:28.326Z,98960.28
2019-03-12T11:25:56.238Z,98948.78
2019-03-12T11:28:26.750Z,98953.33
2019-03-12T11:30:54.453Z,98939.66
2019-03-12T11:33:22.384Z,98934.03
2019-03-12T11:35:50.510Z,98924.68
2019-03-12T11:38:19.022Z,98921.98
2019-03-12T11:40:47.230Z,98916.13
2019-03-12T11:43:15.453Z,98917.73
2019-03-12T11:45:44.378Z,98913.45
2019-03-12T11:48:12.388Z,98901.13
2019-03-12T11:50:40.951Z,98906.48
2019-03-12T11:53:09.001Z,98904.07
2019-03-12T11:55:38.957Z,98901.66
2019-03-12T11:58:06.945Z,98900.07
2019-03-12T12:01:21.773Z,98884.27
2019-03-12T12:03:48.854Z,98884.56
2019-03-12T12:06:15.969Z,98868.00
2019-03-12T12:08:43.135Z,98861.84
2019-03-12T12:11:10.191Z,98853.80
2019-03-12T12:13:37.587Z,98842.84
2019-03-12T12:16:04.945Z,98835.09
2019-03-12T12:18:31.990Z,98832.14
2019-03-12T12:20:59.046Z,98823.03
2019-03-12T12:23:26.418Z,98817.67
2019-03-12T12:25:53.464Z,98806.17
2019-03-12T12:28:20.982Z,98807.77
2019-03-12T12:30:48.127Z,98798.69
2019-03-12T12:33:15.139Z,98790.10
2019-03-12T12:35:42.216Z,98780.75
2019-03-12T12:38:09.285Z,98770.87
2019-03-12T12:40:36.840Z,98758.83
2019-03-12T12:43:04.276Z,98751.05
2019-03-12T12:45:31.305Z,98733.41
2019-03-12T12:47:58.983Z,98726.44
2019-03-12T12:50:26.146Z,98729.95
2019-03-12T12:52:53.159Z,98722.43
2019-03-12T12:55:20.545Z,98709.84
2019-03-12T12:57:48.257Z,98700.77
2019-03-12T13:00:17.345Z,98700.20
2019-03-12T13:02:44.344Z,98694.05
2019-03-12T13:05:11.723Z,98681.73
2019-03-12T13:07:39.078Z,98676.11
2019-03-12T13:10:08.769Z,98668.05
2019-03-12T13:12:35.920Z,98671.80
2019-03-12T13:15:04.685Z,98671.27
2019-03-12T13:17:32.435Z,98653.62
2019-03-12T13:19:59.981Z,98649.08
2019-03-12T13:22:27.277Z,98643.45
2019-03-12T13:24:55.053Z,98630.59
2019-03-12T13:27:22.431Z,98635.67
2019-03-12T13:29:49.497Z,98619.09
2019-03-12T13:32:17.862Z,98619.06
2019-03-12T13:34:45.337Z,98610.76
2019-03-12T13:37:12.703Z,98602.98
2019-03-12T13:39:40.307Z,98598.16
2019-03-12T13:42:07.481Z,98593.59
2019-03-12T13:44:34.610Z,98575.14
2019-03-12T13:47:02.011Z,98563.62
2019-03-12T13:49:30.199Z,98569.75
2019-03-12T13:51:57.734Z,98566.58
2019-03-12T13:54:25.383Z,98559.05
2019-03-12T13:56:52.805Z,98548.62
2019-03-12T13:59:20.208Z,98547.29
2019-03-12T14:01:47.581Z,98535.77
2019-03-12T14:04:15.067Z,98531.23
2019-03-12T14:06:43.317Z,98531.23
2019-03-12T14:09:11.577Z,98522.42
2019-03-12T14:11:39.007Z,98510.07
2019-03-12T14:14:06.523Z,98511.69
2019-03-12T14:16:33.821Z,98474.64
2019-03-12T14:19:01.347Z,98493.48
2019-03-12T14:21:39.263Z,98484.13
2019-03-12T14:24:07.173Z,98480.10
2019-03-12T14:26:35.379Z,98469.96
2019-03-12T14:29:02.497Z,98459.51
2019-03-12T14:31:29.848Z,98454.69
2019-03-12T14:33:57.225Z,98445.84
2019-03-12T14:36:25.532Z,98448.55
2019-03-12T14:38:53.465Z,98449.61
2019-03-12T14:41:21.284Z,98439.72
2019-03-12T14:43:49.075Z,98432.75
2019-03-12T14:46:17.552Z,98424.72
2019-03-12T14:48:53.931Z,98420.99
2019-03-12T14:51:51.231Z,98404.16
2019-03-12T14:54:20.358Z,98391.59
2019-03-12T14:58:29.251Z,98382.23
2019-03-12T15:00:56.436Z,98372.17
2019-03-12T15:03:23.546Z,98357.18
2019-03-12T15:05:50.740Z,98351.09
2019-03-12T15:08:17.877Z,98342.54
2019-03-12T15:10:45.246Z,98342.78
2019-03-12T15:13:12.311Z,98332.66
2019-03-12T15:15:39.499Z,98333.22
2019-03-12T15:18:07.410Z,98319.03
2019-03-12T15:20:34.525Z,98317.09
2019-03-12T15:23:01.964Z,98307.20
2019-03-12T15:25:29.166Z,98297.06
2019-03-12T15:27:56.258Z,98302.17
2019-03-12T15:30:23.533Z,98285.92
2019-03-12T15:32:52.168Z,98282.16
2019-03-12T15:35:20.469Z,98276.08
2019-03-12T15:37:48.550Z,98264.57
2019-03-12T15:40:15.640Z,98263.80
2019-03-12T15:42:43.030Z,98256.06
2019-03-12T15:45:10.263Z,98253.95
2019-03-12T15:47:38.888Z,98249.41
2019-03-12T15:50:09.834Z,98248.92
2019-03-12T15:52:36.398Z,98240.95
2019-03-12T15:55:04.197Z,98232.69
2019-03-12T15:57:32.135Z,98219.88
2019-03-12T15:59:59.584Z,98224.98
2019-03-12T16:02:26.664Z,98215.35
2019-03-12T16:04:54.596Z,98211.91
2019-03-12T16:07:21.712Z,98200.97
2019-03-12T16:09:49.510Z,98191.09
2019-03-12T16:12:17.075Z,98184.16
2019-03-12T16:14:44.894Z,98184.69
2019-03-12T16:17:11.981Z,98175.66
2019-03-12T16:19:39.378Z,98160.67
2019-03-12T16:22:07.155Z,98166.87
2019-03-12T16:24:34.712Z,98165.01
2019-03-12T16:27:03.411Z,98157.03
2019-03-12T16:29:31.648Z,98156.22
2019-03-12T16:31:59.042Z,98155.95
2019-03-12T16:34:26.482Z,98152.51
2019-03-12T16:39:06.334Z,98139.63
2019-03-12T16:41:33.539Z,98131.45
2019-03-12T16:44:00.904Z,98122.91
2019-03-12T16:46:28.553Z,98115.14
2019-03-12T16:48:56.269Z,98106.64
2019-03-12T16:51:23.939Z,98100.81
2019-03-12T16:53:51.006Z,98098.70
2019-03-12T16:56:18.407Z,98092.31
2019-03-12T16:58:45.476Z,98084.34
2019-03-12T17:01:13.532Z,98072.08
2019-03-12T17:03:40.575Z,98070.75
2019-03-12T17:06:07.632Z,98057.95
2019-03-12T17:08:35.091Z,98057.47
2019-03-12T17:11:02.993Z,98052.13
2019-03-12T17:13:30.547Z,98046.55
2019-03-12T17:15:57.899Z,98042.05
2019-03-12T17:18:25.162Z,98031.09
2019-03-12T17:20:52.378Z,98025.79
2019-03-12T17:23:20.266Z,98013.52
2019-03-12T17:25:49.966Z,98009.77
2019-03-12T17:28:37.990Z,98006.29
2019-03-12T17:31:08.245Z,97998.31
2019-03-12T17:33:36.821Z,97995.89
2019-03-12T17:36:05.662Z,97994.06
2019-03-12T17:38:45.935Z,97985.05
2019-03-12T17:41:03.889Z,97981.86
2019-03-12T17:43:31.639Z,97986.09
2019-03-12T17:46:00.652Z,97986.38
2019-03-12T17:48:29.114Z,97973.80
2019-03-12T17:50:57.390Z,97967.41
2019-03-12T17:53:25.697Z,97963.73
2019-03-12T17:55:54.050Z,97958.39
2019-03-12T17:58:22.115Z,97950.91
2019-03-12T18:00:50.105Z,97945.33
2019-03-12T18:03:18.632Z,97938.13
2019-03-12T18:05:46.387Z,97930.92
2019-03-12T18:08:14.439Z,97925.83
2019-03-12T18:10:42.635Z,97924.25
2019-03-12T18:13:11.153Z,97920.00
2019-03-12T18:15:40.421Z,97914.66
2019-03-12T18:18:09.320Z,97907.23
2019-03-12T18:20:38.312Z,97900.55
2019-03-12T18:23:06.310Z,97895.55
2019-03-12T18:25:34.191Z,97888.53
2019-03-12T18:28:02.153Z,97888.53
2019-03-12T18:30:30.409Z,97892.54
2019-03-12T18:32:59.285Z,97887.45
2019-03-12T18:35:27.092Z,97884.02
2019-03-12T18:37:55.627Z,97889.11
2019-03-12T18:40:23.499Z,97888.87
2019-03-12T18:42:52.011Z,97888.02
2019-03-12T18:45:21.242Z,97882.72
2019-03-12T18:47:49.619Z,97886.73
2019-03-12T18:50:18.456Z,97876.05
2019-03-12T18:52:46.926Z,97875.24
2019-03-12T18:55:55.739Z,97874.47
2019-03-12T18:58:25.834Z,97857.41
2019-03-12T19:00:55.493Z,97860.61
2019-03-12T19:03:24.468Z,97849.44
2019-03-12T19:05:53.443Z,97842.20
2019-03-12T19:08:21.515Z,97838.16
2019-03-12T19:10:50.089Z,97835.77
2019-03-12T19:13:18.471Z,97835.24
2019-03-12T19:15:46.812Z,97825.95
2019-03-12T19:18:15.446Z,97822.75
2019-03-12T19:20:43.415Z,97819.75
2019-03-12T19:23:11.236Z,97793.63
2019-03-12T19:25:39.624Z,97795.73
2019-03-12T19:28:07.384Z,97791.72
2019-03-12T19:30:35.401Z,97796.82
2019-03-12T19:33:06.453Z,97785.66
2019-03-12T19:35:34.690Z,97785.61
2019-03-12T19:38:03.146Z,97786.38
2019-03-12T19:40:31.879Z,97780.73
2019-03-12T19:43:00.016Z,97775.69
2019-03-12T19:45:27.990Z,97778.84
2019-03-12T19:47:57.419Z,97781.31
2019-03-12T19:50:26.851Z,97775.13
2019-03-12T19:52:56.259Z,97780.80
2019-03-12T19:55:31.534Z,97785.80
2019-03-12T19:57:59.791Z,97766.88
2019-03-12T20:00:27.891Z,97755.39
2019-03-12T20:02:56.142Z,97744.18
2019-03-12T20:05:24.877Z,97752.70
2019-03-12T20:07:53.203Z,97740.40
2019-03-12T20:11:21.838Z,97730.01
2019-03-12T20:14:52.128Z,97724.41
2019-03-12T20:18:25.513Z,97722.17
2019-03-12T20:21:47.193Z,97708.60
2019-03-12T20:25:45.412Z,97692.63
2019-03-12T20:29:06.389Z,97681.73
2019-03-12T20:32:10.673Z,97674.53
2019-03-12T20:35:32.325Z,97668.44
2019-03-12T20:39:18.277Z,97668.63
2019-03-12T20:42:43.709Z,97654.23
2019-03-12T20:46:18.295Z,97646.23
2019-03-12T20:49:45.939Z,97635.55
2019-03-12T20:53:42.200Z,97607.79
2019-03-12T20:57:05.632Z,97593.94
2019-03-12T21:00:50.377Z,97606.98
2019-03-12T21:04:12.404Z,97598.45
2019-03-12T21:07:44.118Z,97597.34
2019-03-12T21:11:29.040Z,97589.93
2019-03-12T21:15:09.783Z,97582.16
2019-03-12T21:18:41.839Z,97570.47
2019-03-12T21:22:31.655Z,97560.33
2019-03-12T21:26:05.240Z,97547.72
2019-03-12T21:29:28.993Z,97546.98
2019-03-12T21:31:57.922Z,97534.85
2019-03-12T21:34:27.922Z,97522.36
2019-03-12T21:36:57.427Z,97518.59
2019-03-12T21:39:26.465Z,97514.53
2019-03-12T21:41:58.486Z,97502.58
2019-03-12T21:44:27.618Z,97499.55
2019-03-12T21:46:56.362Z,97492.41
2019-03-12T21:49:24.230Z,97490.80
2019-03-12T21:51:53.932Z,97480.63
2019-03-12T21:54:22.810Z,97440.59
2019-03-12T21:56:51.773Z,97478.79
2019-03-12T21:59:22.209Z,97480.42
2019-03-12T22:01:51.040Z,97459.36
2019-03-12T22:04:19.122Z,97462.83
2019-03-12T22:06:48.064Z,97439.34
2019-03-12T22:09:16.124Z,97439.11
2019-03-12T22:11:45.681Z,97434.56
2019-03-12T22:14:13.928Z,97446.34
2019-03-12T22:16:43.020Z,97445.58
2019-03-12T22:19:10.960Z,97440.47
2019-03-12T22:21:57.389Z,97442.34
2019-03-12T22:24:25.976Z,97444.27
2019-03-12T22:26:54.570Z,97433.36
2019-03-12T22:29:22.997Z,97436.77
2019-03-12T22:31:51.521Z,97435.43
2019-03-12T22:34:19.593Z,97421.11
2019-03-12T22:36:47.530Z,97413.58
2019-03-12T22:39:15.466Z,97409.33
2019-03-12T22:41:44.135Z,97394.66
2019-03-12T22:44:13.075Z,97392.52
2019-03-12T22:46:42.011Z,97389.55
2019-03-12T22:49:10.638Z,97381.31
2019-03-12T22:51:38.372Z,97375.14
2019-03-12T22:54:06.395Z,97381.55
2019-03-12T22:56:34.366Z,97384.72
2019-03-12T22:59:02.431Z,97389.82
2019-03-12T23:01:30.699Z,97390.29
2019-03-12T23:03:58.499Z,97386.58
2019-03-12T23:06:28.643Z,97399.36
2019-03-12T23:08:57.740Z,97407.08
2019-03-12T23:11:25.589Z,97413.69
2019-03-12T23:13:54.017Z,97428.93
2019-03-12T23:16:23.005Z,97424.66
2019-03-12T23:18:51.485Z,97439.61
2019-03-12T23:21:20.521Z,97440.67
2019-03-12T23:23:48.344Z,97447.86
2019-03-12T23:26:16.523Z,97466.04
2019-03-12T23:28:44.455Z,97459.63
2019-03-12T23:31:12.158Z,97472.91
2019-03-12T23:33:42.193Z,97468.08
2019-03-12T23:36:09.878Z,97473.72
2019-03-12T23:38:38.850Z,97476.09
2019-03-12T23:41:06.787Z,97481.73
2019-03-12T23:43:36.051Z,97484.09
2019-03-12T23:46:04.153Z,97483.30
2019-03-12T23:48:33.484Z,97493.17
2019-03-12T23:51:02.380Z,97519.34
2019-03-12T23:53:30.289Z,97512.66
2019-03-12T23:55:58.471Z,97510.80
2019-03-12T23:58:30.172Z,97547.13
